sensor_id;sensor_type;location;lat;lon;timestamp;temperature;humidity
38241;DHT22;24037;49.536;8.500;2023-05-21T00:01:14;15.00;99.90
38241;DHT22;24037;49.536;8.500;2023-05-21T00:03:41;15.00;99.90
38241;DHT22;24037;49.536;8.500;2023-05-21T00:06:11;15.00;99.90
38241;DHT22;24037;49.536;8.500;2023-05-21T00:08:43;15.00;99.90
38241;DHT22;24037;49.536;8.500;2023-05-21T00:11:10;14.90;99.90
38241;DHT22;24037;49.536;8.500;2023-05-21T00:13:36;15.00;99.90
38241;DHT22;24037;49.536;8.500;2023-05-21T00:16:03;14.90;99.90
38241;DHT22;24037;49.536;8.500;2023-05-21T00:18:29;14.90;99.90
38241;DHT22;24037;49.536;8.500;2023-05-21T00:20:59;14.90;99.90
38241;DHT22;24037;49.536;8.500;2023-05-21T00:23:25;14.90;99.90
38241;DHT22;24037;49.536;8.500;2023-05-21T00:25:52;14.90;99.90
38241;DHT22;24037;49.536;8.500;2023-05-21T00:28:18;14.90;99.90
38241;DHT22;24037;49.536;8.500;2023-05-21T00:30:44;14.80;99.90
38241;DHT22;24037;49.536;8.500;2023-05-21T00:33:10;14.90;99.90
38241;DHT22;24037;49.536;8.500;2023-05-21T00:35:39;14.90;99.90
38241;DHT22;24037;49.536;8.500;2023-05-21T00:38:05;14.90;99.90
38241;DHT22;24037;49.536;8.500;2023-05-21T00:40:33;14.90;99.90
38241;DHT22;24037;49.536;8.500;2023-05-21T00:43:00;14.80;99.90
38241;DHT22;24037;49.536;8.500;2023-05-21T00:45:27;14.90;99.90
38241;DHT22;24037;49.536;8.500;2023-05-21T00:47:54;14.80;99.90
38241;DHT22;24037;49.536;8.500;2023-05-21T00:50:21;14.90;99.90
38241;DHT22;24037;49.536;8.500;2023-05-21T00:52:48;14.80;99.90
38241;DHT22;24037;49.536;8.500;2023-05-21T00:55:15;14.80;99.90
38241;DHT22;24037;49.536;8.500;2023-05-21T00:57:41;14.80;99.90
38241;DHT22;24037;49.536;8.500;2023-05-21T01:00:08;14.80;99.90
38241;DHT22;24037;49.536;8.500;2023-05-21T01:02:36;14.70;99.90
38241;DHT22;24037;49.536;8.500;2023-05-21T01:05:03;14.70;99.90
38241;DHT22;24037;49.536;8.500;2023-05-21T01:07:34;14.80;99.90
38241;DHT22;24037;49.536;8.500;2023-05-21T01:10:02;14.80;99.90
38241;DHT22;24037;49.536;8.500;2023-05-21T01:12:30;14.70;99.90
38241;DHT22;24037;49.536;8.500;2023-05-21T01:15:00;14.80;99.90
38241;DHT22;24037;49.536;8.500;2023-05-21T01:17:28;14.70;99.90
38241;DHT22;24037;49.536;8.500;2023-05-21T01:19:56;14.70;99.90
38241;DHT22;24037;49.536;8.500;2023-05-21T01:22:24;14.70;99.90
38241;DHT22;24037;49.536;8.500;2023-05-21T01:24:54;14.70;99.90
38241;DHT22;24037;49.536;8.500;2023-05-21T01:27:25;14.70;99.90
38241;DHT22;24037;49.536;8.500;2023-05-21T01:29:56;14.60;99.90
38241;DHT22;24037;49.536;8.500;2023-05-21T01:32:35;14.70;99.90
38241;DHT22;24037;49.536;8.500;2023-05-21T01:35:12;14.70;99.90
38241;DHT22;24037;49.536;8.500;2023-05-21T01:41:02;14.60;99.90
38241;DHT22;24037;49.536;8.500;2023-05-21T01:43:34;14.60;99.90
38241;DHT22;24037;49.536;8.500;2023-05-21T01:46:01;14.70;99.90
38241;DHT22;24037;49.536;8.500;2023-05-21T01:48:29;14.60;99.90
38241;DHT22;24037;49.536;8.500;2023-05-21T01:51:02;14.60;99.90
38241;DHT22;24037;49.536;8.500;2023-05-21T01:53:28;14.60;99.90
38241;DHT22;24037;49.536;8.500;2023-05-21T01:55:55;14.60;99.90
38241;DHT22;24037;49.536;8.500;2023-05-21T01:58:21;14.60;99.90
38241;DHT22;24037;49.536;8.500;2023-05-21T02:00:49;14.60;99.90
38241;DHT22;24037;49.536;8.500;2023-05-21T02:03:16;14.60;99.90
38241;DHT22;24037;49.536;8.500;2023-05-21T02:05:43;14.60;99.90
38241;DHT22;24037;49.536;8.500;2023-05-21T02:08:11;14.60;99.90
38241;DHT22;24037;49.536;8.500;2023-05-21T02:10:37;14.60;99.90
38241;DHT22;24037;49.536;8.500;2023-05-21T02:13:04;14.60;99.90
38241;DHT22;24037;49.536;8.500;2023-05-21T02:15:30;14.60;99.90
38241;DHT22;24037;49.536;8.500;2023-05-21T02:17:59;14.60;99.90
38241;DHT22;24037;49.536;8.500;2023-05-21T02:20:25;14.50;99.90
38241;DHT22;24037;49.536;8.500;2023-05-21T02:22:51;14.50;99.90
38241;DHT22;24037;49.536;8.500;2023-05-21T02:25:18;14.50;99.90
38241;DHT22;24037;49.536;8.500;2023-05-21T02:27:44;14.50;99.90
38241;DHT22;24037;49.536;8.500;2023-05-21T02:30:13;14.40;99.90
38241;DHT22;24037;49.536;8.500;2023-05-21T02:32:40;14.50;99.90
38241;DHT22;24037;49.536;8.500;2023-05-21T02:35:08;14.40;99.90
38241;DHT22;24037;49.536;8.500;2023-05-21T02:37:35;14.40;99.90
38241;DHT22;24037;49.536;8.500;2023-05-21T02:40:03;14.40;99.90
38241;DHT22;24037;49.536;8.500;2023-05-21T02:42:33;14.40;99.90
38241;DHT22;24037;49.536;8.500;2023-05-21T02:45:01;14.40;99.90
38241;DHT22;24037;49.536;8.500;2023-05-21T02:47:28;14.40;99.90
38241;DHT22;24037;49.536;8.500;2023-05-21T02:49:54;14.40;99.90
38241;DHT22;24037;49.536;8.500;2023-05-21T02:52:20;14.30;99.90
38241;DHT22;24037;49.536;8.500;2023-05-21T02:54:51;14.30;99.90
38241;DHT22;24037;49.536;8.500;2023-05-21T02:57:17;14.30;99.90
38241;DHT22;24037;49.536;8.500;2023-05-21T02:59:44;14.30;99.90
38241;DHT22;24037;49.536;8.500;2023-05-21T03:02:11;14.30;99.90
38241;DHT22;24037;49.536;8.500;2023-05-21T03:04:37;14.30;99.90
38241;DHT22;24037;49.536;8.500;2023-05-21T03:07:04;14.30;99.90
38241;DHT22;24037;49.536;8.500;2023-05-21T03:09:31;14.20;99.90
38241;DHT22;24037;49.536;8.500;2023-05-21T03:11:57;14.20;99.90
38241;DHT22;24037;49.536;8.500;2023-05-21T03:14:24;14.30;99.90
38241;DHT22;24037;49.536;8.500;2023-05-21T03:16:50;14.20;99.90
38241;DHT22;24037;49.536;8.500;2023-05-21T03:19:17;14.20;99.90
38241;DHT22;24037;49.536;8.500;2023-05-21T03:21:46;14.20;99.90
38241;DHT22;24037;49.536;8.500;2023-05-21T03:24:14;14.20;99.90
38241;DHT22;24037;49.536;8.500;2023-05-21T03:26:40;14.10;99.90
38241;DHT22;24037;49.536;8.500;2023-05-21T03:29:06;14.10;99.90
38241;DHT22;24037;49.536;8.500;2023-05-21T03:31:34;14.10;99.90
38241;DHT22;24037;49.536;8.500;2023-05-21T03:34:10;14.10;99.90
38241;DHT22;24037;49.536;8.500;2023-05-21T03:36:36;14.10;99.90
38241;DHT22;24037;49.536;8.500;2023-05-21T03:39:03;14.10;99.90
38241;DHT22;24037;49.536;8.500;2023-05-21T03:41:32;14.10;99.90
38241;DHT22;24037;49.536;8.500;2023-05-21T03:44:05;14.10;99.90
38241;DHT22;24037;49.536;8.500;2023-05-21T03:46:47;14.10;99.90
38241;DHT22;24037;49.536;8.500;2023-05-21T03:49:26;14.00;99.90
38241;DHT22;24037;49.536;8.500;2023-05-21T03:51:55;14.00;99.90
38241;DHT22;24037;49.536;8.500;2023-05-21T03:54:22;14.00;99.90
38241;DHT22;24037;49.536;8.500;2023-05-21T03:56:51;14.00;99.90
38241;DHT22;24037;49.536;8.500;2023-05-21T03:59:18;14.00;99.90
38241;DHT22;24037;49.536;8.500;2023-05-21T04:01:45;14.00;99.90
38241;DHT22;24037;49.536;8.500;2023-05-21T04:04:15;14.00;99.90
38241;DHT22;24037;49.536;8.500;2023-05-21T04:06:42;14.00;99.90
38241;DHT22;24037;49.536;8.500;2023-05-21T04:09:13;14.00;99.90
38241;DHT22;24037;49.536;8.500;2023-05-21T04:11:41;14.00;99.90
38241;DHT22;24037;49.536;8.500;2023-05-21T04:14:13;14.00;99.90
38241;DHT22;24037;49.536;8.500;2023-05-21T04:16:42;14.00;99.90
38241;DHT22;24037;49.536;8.500;2023-05-21T04:19:09;14.00;99.90
38241;DHT22;24037;49.536;8.500;2023-05-21T04:21:36;14.00;99.90
38241;DHT22;24037;49.536;8.500;2023-05-21T04:24:03;14.00;99.90
38241;DHT22;24037;49.536;8.500;2023-05-21T04:26:44;14.00;99.90
38241;DHT22;24037;49.536;8.500;2023-05-21T04:29:11;14.00;99.90
38241;DHT22;24037;49.536;8.500;2023-05-21T04:31:38;14.00;99.90
38241;DHT22;24037;49.536;8.500;2023-05-21T04:34:04;14.00;99.90
38241;DHT22;24037;49.536;8.500;2023-05-21T04:36:32;14.00;99.90
38241;DHT22;24037;49.536;8.500;2023-05-21T04:38:59;14.00;99.90
38241;DHT22;24037;49.536;8.500;2023-05-21T04:41:25;14.00;99.90
38241;DHT22;24037;49.536;8.500;2023-05-21T04:43:51;14.10;99.90
38241;DHT22;24037;49.536;8.500;2023-05-21T04:46:22;14.10;99.90
38241;DHT22;24037;49.536;8.500;2023-05-21T04:48:52;14.10;99.90
38241;DHT22;24037;49.536;8.500;2023-05-21T04:51:21;14.10;99.90
38241;DHT22;24037;49.536;8.500;2023-05-21T04:53:51;14.20;99.90
38241;DHT22;24037;49.536;8.500;2023-05-21T04:56:19;14.20;99.90
38241;DHT22;24037;49.536;8.500;2023-05-21T04:58:49;14.20;99.90
38241;DHT22;24037;49.536;8.500;2023-05-21T05:01:15;14.20;99.90
38241;DHT22;24037;49.536;8.500;2023-05-21T05:03:42;14.30;99.90
38241;DHT22;24037;49.536;8.500;2023-05-21T05:06:10;14.40;99.90
38241;DHT22;24037;49.536;8.500;2023-05-21T05:08:37;14.40;99.90
38241;DHT22;24037;49.536;8.500;2023-05-21T05:11:03;14.50;99.90
38241;DHT22;24037;49.536;8.500;2023-05-21T05:13:30;14.50;99.90
38241;DHT22;24037;49.536;8.500;2023-05-21T05:15:56;14.50;99.90
38241;DHT22;24037;49.536;8.500;2023-05-21T05:18:22;14.60;99.90
38241;DHT22;24037;49.536;8.500;2023-05-21T05:20:48;14.60;99.90
38241;DHT22;24037;49.536;8.500;2023-05-21T05:23:15;14.70;99.90
38241;DHT22;24037;49.536;8.500;2023-05-21T05:25:41;14.70;99.90
38241;DHT22;24037;49.536;8.500;2023-05-21T05:28:08;14.80;99.90
38241;DHT22;24037;49.536;8.500;2023-05-21T05:30:34;14.80;99.90
38241;DHT22;24037;49.536;8.500;2023-05-21T05:33:12;14.90;99.90
38241;DHT22;24037;49.536;8.500;2023-05-21T05:35:38;14.90;99.90
38241;DHT22;24037;49.536;8.500;2023-05-21T05:38:04;15.10;99.90
38241;DHT22;24037;49.536;8.500;2023-05-21T05:40:31;15.20;99.90
38241;DHT22;24037;49.536;8.500;2023-05-21T05:42:57;15.30;99.90
38241;DHT22;24037;49.536;8.500;2023-05-21T05:45:23;15.40;99.90
38241;DHT22;24037;49.536;8.500;2023-05-21T05:47:52;15.30;99.90
38241;DHT22;24037;49.536;8.500;2023-05-21T05:50:18;15.30;99.90
38241;DHT22;24037;49.536;8.500;2023-05-21T05:52:45;15.30;99.90
38241;DHT22;24037;49.536;8.500;2023-05-21T05:55:11;15.40;99.90
38241;DHT22;24037;49.536;8.500;2023-05-21T05:57:37;15.60;99.90
38241;DHT22;24037;49.536;8.500;2023-05-21T06:00:09;15.70;99.90
38241;DHT22;24037;49.536;8.500;2023-05-21T06:02:39;15.80;99.90
38241;DHT22;24037;49.536;8.500;2023-05-21T06:05:06;16.00;99.90
38241;DHT22;24037;49.536;8.500;2023-05-21T06:07:33;16.20;99.90
38241;DHT22;24037;49.536;8.500;2023-05-21T06:09:59;16.40;99.90
38241;DHT22;24037;49.536;8.500;2023-05-21T06:12:26;16.80;99.90
38241;DHT22;24037;49.536;8.500;2023-05-21T06:14:52;16.90;99.90
38241;DHT22;24037;49.536;8.500;2023-05-21T06:17:19;17.40;99.90
38241;DHT22;24037;49.536;8.500;2023-05-21T06:19:45;17.50;99.90
38241;DHT22;24037;49.536;8.500;2023-05-21T06:22:11;17.30;99.90
38241;DHT22;24037;49.536;8.500;2023-05-21T06:24:38;17.60;95.50
38241;DHT22;24037;49.536;8.500;2023-05-21T06:27:04;17.50;99.70
38241;DHT22;24037;49.536;8.500;2023-05-21T06:29:32;17.70;98.90
38241;DHT22;24037;49.536;8.500;2023-05-21T06:32:02;17.90;86.80
38241;DHT22;24037;49.536;8.500;2023-05-21T06:34:38;17.80;88.90
38241;DHT22;24037;49.536;8.500;2023-05-21T06:37:07;17.90;83.80
38241;DHT22;24037;49.536;8.500;2023-05-21T06:39:54;17.80;85.90
38241;DHT22;24037;49.536;8.500;2023-05-21T06:42:24;17.90;86.10
38241;DHT22;24037;49.536;8.500;2023-05-21T06:45:12;18.20;57.20
38241;DHT22;24037;49.536;8.500;2023-05-21T06:47:42;18.70;26.60
38241;DHT22;24037;49.536;8.500;2023-05-21T06:50:10;19.00;17.90
38241;DHT22;24037;49.536;8.500;2023-05-21T06:52:41;19.30;1.00
38241;DHT22;24037;49.536;8.500;2023-05-21T06:55:09;19.10;1.00
38241;DHT22;24037;49.536;8.500;2023-05-21T06:57:59;19.60;1.00
38241;DHT22;24037;49.536;8.500;2023-05-21T07:00:30;20.70;1.00
38241;DHT22;24037;49.536;8.500;2023-05-21T07:03:00;19.90;1.00
38241;DHT22;24037;49.536;8.500;2023-05-21T07:05:26;20.00;1.00
38241;DHT22;24037;49.536;8.500;2023-05-21T07:07:54;20.30;1.00
38241;DHT22;24037;49.536;8.500;2023-05-21T07:10:20;20.80;1.00
38241;DHT22;24037;49.536;8.500;2023-05-21T07:12:46;20.10;1.00
38241;DHT22;24037;49.536;8.500;2023-05-21T07:15:13;19.80;1.00
38241;DHT22;24037;49.536;8.500;2023-05-21T07:17:39;19.60;1.00
38241;DHT22;24037;49.536;8.500;2023-05-21T07:20:07;19.70;1.00
38241;DHT22;24037;49.536;8.500;2023-05-21T07:22:37;20.10;1.00
38241;DHT22;24037;49.536;8.500;2023-05-21T07:25:05;19.90;1.00
38241;DHT22;24037;49.536;8.500;2023-05-21T07:27:31;19.90;1.00
38241;DHT22;24037;49.536;8.500;2023-05-21T07:29:58;20.10;1.00
38241;DHT22;24037;49.536;8.500;2023-05-21T07:32:25;20.70;1.00
38241;DHT22;24037;49.536;8.500;2023-05-21T07:34:54;21.30;1.00
38241;DHT22;24037;49.536;8.500;2023-05-21T07:37:23;21.10;1.00
38241;DHT22;24037;49.536;8.500;2023-05-21T07:39:50;21.00;1.00
38241;DHT22;24037;49.536;8.500;2023-05-21T07:42:16;21.70;1.00
38241;DHT22;24037;49.536;8.500;2023-05-21T07:44:43;22.40;1.00
38241;DHT22;24037;49.536;8.500;2023-05-21T07:47:10;22.50;1.00
38241;DHT22;24037;49.536;8.500;2023-05-21T07:49:36;22.00;1.00
38241;DHT22;24037;49.536;8.500;2023-05-21T07:52:03;22.00;1.00
38241;DHT22;24037;49.536;8.500;2023-05-21T07:54:29;22.00;1.00
38241;DHT22;24037;49.536;8.500;2023-05-21T07:56:57;21.60;1.00
38241;DHT22;24037;49.536;8.500;2023-05-21T07:59:43;21.50;1.00
38241;DHT22;24037;49.536;8.500;2023-05-21T08:02:10;21.70;1.00
38241;DHT22;24037;49.536;8.500;2023-05-21T08:04:36;21.50;1.00
38241;DHT22;24037;49.536;8.500;2023-05-21T08:07:03;21.70;1.00
38241;DHT22;24037;49.536;8.500;2023-05-21T08:09:30;22.70;1.00
38241;DHT22;24037;49.536;8.500;2023-05-21T08:11:57;23.40;1.00
38241;DHT22;24037;49.536;8.500;2023-05-21T08:14:24;23.50;1.00
38241;DHT22;24037;49.536;8.500;2023-05-21T08:16:50;22.80;1.00
38241;DHT22;24037;49.536;8.500;2023-05-21T08:19:16;22.10;1.00
38241;DHT22;24037;49.536;8.500;2023-05-21T08:21:43;22.10;1.00
38241;DHT22;24037;49.536;8.500;2023-05-21T08:24:10;22.80;1.00
38241;DHT22;24037;49.536;8.500;2023-05-21T08:26:37;21.90;1.00
38241;DHT22;24037;49.536;8.500;2023-05-21T08:29:03;21.80;1.00
38241;DHT22;24037;49.536;8.500;2023-05-21T08:31:30;22.40;1.00
38241;DHT22;24037;49.536;8.500;2023-05-21T08:33:56;22.80;1.00
38241;DHT22;24037;49.536;8.500;2023-05-21T08:36:33;23.30;99.90
38241;DHT22;24037;49.536;8.500;2023-05-21T08:39:06;23.50;99.90
38241;DHT22;24037;49.536;8.500;2023-05-21T08:41:35;23.30;99.90
38241;DHT22;24037;49.536;8.500;2023-05-21T08:44:07;22.50;1.00
38241;DHT22;24037;49.536;8.500;2023-05-21T08:46:38;22.40;1.00
38241;DHT22;24037;49.536;8.500;2023-05-21T08:49:06;22.80;1.00
38241;DHT22;24037;49.536;8.500;2023-05-21T08:51:34;22.60;1.00
38241;DHT22;24037;49.536;8.500;2023-05-21T08:54:01;22.60;1.00
38241;DHT22;24037;49.536;8.500;2023-05-21T08:56:30;22.20;1.00
38241;DHT22;24037;49.536;8.500;2023-05-21T08:58:58;21.90;1.00
38241;DHT22;24037;49.536;8.500;2023-05-21T09:01:27;21.80;1.00
38241;DHT22;24037;49.536;8.500;2023-05-21T09:04:03;22.10;1.00
38241;DHT22;24037;49.536;8.500;2023-05-21T09:06:30;22.30;1.00
38241;DHT22;24037;49.536;8.500;2023-05-21T09:09:08;22.80;99.90
38241;DHT22;24037;49.536;8.500;2023-05-21T09:11:44;23.30;99.90
38241;DHT22;24037;49.536;8.500;2023-05-21T09:14:12;23.30;99.90
38241;DHT22;24037;49.536;8.500;2023-05-21T09:16:54;23.80;99.90
38241;DHT22;24037;49.536;8.500;2023-05-21T09:19:20;23.70;99.90
38241;DHT22;24037;49.536;8.500;2023-05-21T09:21:50;22.60;99.90
38241;DHT22;24037;49.536;8.500;2023-05-21T09:24:22;22.70;99.90
38241;DHT22;24037;49.536;8.500;2023-05-21T09:26:49;23.10;99.90
38241;DHT22;24037;49.536;8.500;2023-05-21T09:29:16;23.10;99.90
38241;DHT22;24037;49.536;8.500;2023-05-21T09:31:44;23.30;99.90
38241;DHT22;24037;49.536;8.500;2023-05-21T09:34:11;23.00;99.90
38241;DHT22;24037;49.536;8.500;2023-05-21T09:36:40;23.10;99.90
38241;DHT22;24037;49.536;8.500;2023-05-21T09:39:06;23.50;99.90
38241;DHT22;24037;49.536;8.500;2023-05-21T09:41:33;23.90;99.90
38241;DHT22;24037;49.536;8.500;2023-05-21T09:44:01;23.60;99.90
38241;DHT22;24037;49.536;8.500;2023-05-21T09:46:39;23.20;99.90
38241;DHT22;24037;49.536;8.500;2023-05-21T09:49:24;22.80;99.90
38241;DHT22;24037;49.536;8.500;2023-05-21T09:51:55;23.10;1.00
38241;DHT22;24037;49.536;8.500;2023-05-21T09:54:25;23.80;99.90
38241;DHT22;24037;49.536;8.500;2023-05-21T09:56:55;23.60;99.90
38241;DHT22;24037;49.536;8.500;2023-05-21T09:59:22;24.10;99.90
38241;DHT22;24037;49.536;8.500;2023-05-21T10:01:51;24.80;99.90
38241;DHT22;24037;49.536;8.500;2023-05-21T10:04:18;24.80;99.90
38241;DHT22;24037;49.536;8.500;2023-05-21T10:06:46;24.40;99.90
38241;DHT22;24037;49.536;8.500;2023-05-21T10:09:14;24.60;99.90
38241;DHT22;24037;49.536;8.500;2023-05-21T10:11:43;24.60;99.90
38241;DHT22;24037;49.536;8.500;2023-05-21T10:14:19;25.30;99.90
38241;DHT22;24037;49.536;8.500;2023-05-21T10:16:47;24.90;99.90
38241;DHT22;24037;49.536;8.500;2023-05-21T10:19:14;24.70;99.90
38241;DHT22;24037;49.536;8.500;2023-05-21T10:21:41;24.50;99.90
38241;DHT22;24037;49.536;8.500;2023-05-21T10:24:08;23.90;99.90
38241;DHT22;24037;49.536;8.500;2023-05-21T10:26:37;23.70;99.90
38241;DHT22;24037;49.536;8.500;2023-05-21T10:29:03;23.60;99.90
38241;DHT22;24037;49.536;8.500;2023-05-21T10:31:30;24.30;99.90
38241;DHT22;24037;49.536;8.500;2023-05-21T10:33:59;24.20;99.90
38241;DHT22;24037;49.536;8.500;2023-05-21T10:36:29;24.00;99.90
38241;DHT22;24037;49.536;8.500;2023-05-21T10:38:59;24.30;99.90
38241;DHT22;24037;49.536;8.500;2023-05-21T10:41:27;24.40;99.90
38241;DHT22;24037;49.536;8.500;2023-05-21T10:53:10;24.30;99.90
38241;DHT22;24037;49.536;8.500;2023-05-21T11:01:18;24.50;99.90
38241;DHT22;24037;49.536;8.500;2023-05-21T11:03:46;24.40;99.90
38241;DHT22;24037;49.536;8.500;2023-05-21T11:06:22;24.70;99.90
38241;DHT22;24037;49.536;8.500;2023-05-21T11:08:49;24.90;99.90
38241;DHT22;24037;49.536;8.500;2023-05-21T11:19:41;25.50;99.90
38241;DHT22;24037;49.536;8.500;2023-05-21T11:22:19;25.60;99.90
38241;DHT22;24037;49.536;8.500;2023-05-21T11:24:46;25.70;99.90
38241;DHT22;24037;49.536;8.500;2023-05-21T11:27:12;25.50;99.90
38241;DHT22;24037;49.536;8.500;2023-05-21T11:29:43;25.50;99.90
38241;DHT22;24037;49.536;8.500;2023-05-21T11:32:11;25.50;99.90
38241;DHT22;24037;49.536;8.500;2023-05-21T11:34:43;25.50;99.90
38241;DHT22;24037;49.536;8.500;2023-05-21T11:39:43;25.70;99.90
38241;DHT22;24037;49.536;8.500;2023-05-21T11:42:10;25.80;99.90
38241;DHT22;24037;49.536;8.500;2023-05-21T11:44:46;25.70;99.90
38241;DHT22;24037;49.536;8.500;2023-05-21T11:47:15;25.70;99.90
38241;DHT22;24037;49.536;8.500;2023-05-21T11:49:41;26.00;99.90
38241;DHT22;24037;49.536;8.500;2023-05-21T11:52:09;25.90;99.90
38241;DHT22;24037;49.536;8.500;2023-05-21T11:54:46;26.00;99.90
38241;DHT22;24037;49.536;8.500;2023-05-21T11:57:13;25.90;99.90
38241;DHT22;24037;49.536;8.500;2023-05-21T11:59:41;25.80;99.90
38241;DHT22;24037;49.536;8.500;2023-05-21T12:02:07;25.70;99.90
38241;DHT22;24037;49.536;8.500;2023-05-21T12:04:35;25.90;99.90
38241;DHT22;24037;49.536;8.500;2023-05-21T12:07:05;26.20;99.90
38241;DHT22;24037;49.536;8.500;2023-05-21T12:09:45;26.40;99.90
38241;DHT22;24037;49.536;8.500;2023-05-21T12:12:14;26.30;99.90
38241;DHT22;24037;49.536;8.500;2023-05-21T12:14:45;26.20;99.90
38241;DHT22;24037;49.536;8.500;2023-05-21T12:17:11;26.30;99.90
38241;DHT22;24037;49.536;8.500;2023-05-21T12:19:41;26.00;99.90
38241;DHT22;24037;49.536;8.500;2023-05-21T12:22:08;26.10;99.90
38241;DHT22;24037;49.536;8.500;2023-05-21T12:24:36;26.50;99.90
38241;DHT22;24037;49.536;8.500;2023-05-21T12:27:03;26.60;99.90
38241;DHT22;24037;49.536;8.500;2023-05-21T12:29:38;26.60;99.90
38241;DHT22;24037;49.536;8.500;2023-05-21T12:32:06;26.80;99.90
38241;DHT22;24037;49.536;8.500;2023-05-21T12:34:53;27.00;99.90
38241;DHT22;24037;49.536;8.500;2023-05-21T12:37:21;27.20;99.90
38241;DHT22;24037;49.536;8.500;2023-05-21T12:39:49;27.30;99.90
38241;DHT22;24037;49.536;8.500;2023-05-21T12:42:15;27.50;99.90
38241;DHT22;24037;49.536;8.500;2023-05-21T12:44:46;27.40;99.90
38241;DHT22;24037;49.536;8.500;2023-05-21T12:47:12;27.20;99.90
38241;DHT22;24037;49.536;8.500;2023-05-21T12:49:43;27.10;99.90
38241;DHT22;24037;49.536;8.500;2023-05-21T12:52:17;27.50;99.90
38241;DHT22;24037;49.536;8.500;2023-05-21T12:54:48;28.10;99.90
38241;DHT22;24037;49.536;8.500;2023-05-21T13:02:23;27.40;99.90
38241;DHT22;24037;49.536;8.500;2023-05-21T13:05:10;27.30;99.90
38241;DHT22;24037;49.536;8.500;2023-05-21T13:07:40;27.10;99.90
38241;DHT22;24037;49.536;8.500;2023-05-21T13:10:06;27.00;99.90
38241;DHT22;24037;49.536;8.500;2023-05-21T13:12:33;27.20;99.90
38241;DHT22;24037;49.536;8.500;2023-05-21T13:15:00;27.70;99.90
38241;DHT22;24037;49.536;8.500;2023-05-21T13:17:27;27.90;99.90
38241;DHT22;24037;49.536;8.500;2023-05-21T13:20:08;27.70;99.90
38241;DHT22;24037;49.536;8.500;2023-05-21T13:22:36;28.00;99.90
38241;DHT22;24037;49.536;8.500;2023-05-21T13:25:09;28.10;99.90
38241;DHT22;24037;49.536;8.500;2023-05-21T13:27:37;28.00;99.90
38241;DHT22;24037;49.536;8.500;2023-05-21T13:30:04;28.30;99.90
38241;DHT22;24037;49.536;8.500;2023-05-21T13:32:31;28.60;99.90
38241;DHT22;24037;49.536;8.500;2023-05-21T13:34:57;28.00;99.90
38241;DHT22;24037;49.536;8.500;2023-05-21T13:37:23;28.00;99.90
38241;DHT22;24037;49.536;8.500;2023-05-21T13:39:49;27.90;99.90
38241;DHT22;24037;49.536;8.500;2023-05-21T13:42:16;27.80;99.90
38241;DHT22;24037;49.536;8.500;2023-05-21T13:44:42;28.00;99.90
38241;DHT22;24037;49.536;8.500;2023-05-21T13:47:08;27.70;99.90
38241;DHT22;24037;49.536;8.500;2023-05-21T13:49:35;27.60;99.90
38241;DHT22;24037;49.536;8.500;2023-05-21T13:52:02;27.30;99.90
38241;DHT22;24037;49.536;8.500;2023-05-21T13:54:29;27.10;99.90
38241;DHT22;24037;49.536;8.500;2023-05-21T13:56:55;27.00;99.90
38241;DHT22;24037;49.536;8.500;2023-05-21T13:59:22;26.90;99.90
38241;DHT22;24037;49.536;8.500;2023-05-21T14:01:48;26.70;99.90
38241;DHT22;24037;49.536;8.500;2023-05-21T14:04:16;26.80;99.90
38241;DHT22;24037;49.536;8.500;2023-05-21T14:06:43;26.80;99.90
38241;DHT22;24037;49.536;8.500;2023-05-21T14:09:09;26.90;99.90
38241;DHT22;24037;49.536;8.500;2023-05-21T14:11:35;26.90;99.90
38241;DHT22;24037;49.536;8.500;2023-05-21T14:14:02;27.30;99.90
38241;DHT22;24037;49.536;8.500;2023-05-21T14:16:28;27.30;99.90
38241;DHT22;24037;49.536;8.500;2023-05-21T14:18:54;27.20;99.90
38241;DHT22;24037;49.536;8.500;2023-05-21T14:21:20;27.00;99.90
38241;DHT22;24037;49.536;8.500;2023-05-21T14:23:47;27.10;99.90
38241;DHT22;24037;49.536;8.500;2023-05-21T14:26:17;27.10;99.90
38241;DHT22;24037;49.536;8.500;2023-05-21T14:28:44;27.00;99.90
38241;DHT22;24037;49.536;8.500;2023-05-21T14:31:10;27.00;99.90
38241;DHT22;24037;49.536;8.500;2023-05-21T14:33:37;27.10;99.90
38241;DHT22;24037;49.536;8.500;2023-05-21T14:36:04;27.30;99.90
38241;DHT22;24037;49.536;8.500;2023-05-21T14:38:31;27.60;99.90
38241;DHT22;24037;49.536;8.500;2023-05-21T14:40:57;27.70;99.90
38241;DHT22;24037;49.536;8.500;2023-05-21T14:43:23;27.80;99.90
38241;DHT22;24037;49.536;8.500;2023-05-21T14:45:49;27.50;99.90
38241;DHT22;24037;49.536;8.500;2023-05-21T14:48:16;27.10;99.90
38241;DHT22;24037;49.536;8.500;2023-05-21T14:50:43;27.20;99.90
38241;DHT22;24037;49.536;8.500;2023-05-21T14:53:10;27.10;99.90
38241;DHT22;24037;49.536;8.500;2023-05-21T14:55:37;27.20;99.90
38241;DHT22;24037;49.536;8.500;2023-05-21T14:58:04;27.20;99.90
38241;DHT22;24037;49.536;8.500;2023-05-21T15:00:34;27.20;99.90
38241;DHT22;24037;49.536;8.500;2023-05-21T15:03:00;27.00;99.90
38241;DHT22;24037;49.536;8.500;2023-05-21T15:05:27;26.90;99.90
38241;DHT22;24037;49.536;8.500;2023-05-21T15:07:55;27.00;99.90
38241;DHT22;24037;49.536;8.500;2023-05-21T15:10:25;27.10;99.90
38241;DHT22;24037;49.536;8.500;2023-05-21T15:12:51;27.30;99.90
38241;DHT22;24037;49.536;8.500;2023-05-21T15:15:18;27.40;99.90
38241;DHT22;24037;49.536;8.500;2023-05-21T15:17:48;27.20;99.90
38241;DHT22;24037;49.536;8.500;2023-05-21T15:20:15;27.20;99.90
38241;DHT22;24037;49.536;8.500;2023-05-21T15:22:41;27.30;99.90
38241;DHT22;24037;49.536;8.500;2023-05-21T15:25:08;27.10;99.90
38241;DHT22;24037;49.536;8.500;2023-05-21T15:27:34;27.10;99.90
38241;DHT22;24037;49.536;8.500;2023-05-21T15:30:00;27.10;99.90
38241;DHT22;24037;49.536;8.500;2023-05-21T15:32:26;27.20;99.90
38241;DHT22;24037;49.536;8.500;2023-05-21T15:34:53;27.10;99.90
38241;DHT22;24037;49.536;8.500;2023-05-21T15:37:19;27.00;99.90
38241;DHT22;24037;49.536;8.500;2023-05-21T15:39:46;27.00;99.90
38241;DHT22;24037;49.536;8.500;2023-05-21T15:42:16;27.00;99.90
38241;DHT22;24037;49.536;8.500;2023-05-21T15:44:42;27.00;99.90
38241;DHT22;24037;49.536;8.500;2023-05-21T15:47:08;26.90;99.90
38241;DHT22;24037;49.536;8.500;2023-05-21T15:49:34;27.00;99.90
38241;DHT22;24037;49.536;8.500;2023-05-21T15:52:00;27.00;99.90
38241;DHT22;24037;49.536;8.500;2023-05-21T15:54:28;27.10;99.90
38241;DHT22;24037;49.536;8.500;2023-05-21T15:56:54;27.00;99.90
38241;DHT22;24037;49.536;8.500;2023-05-21T15:59:20;26.90;99.90
38241;DHT22;24037;49.536;8.500;2023-05-21T16:01:47;27.10;99.90
38241;DHT22;24037;49.536;8.500;2023-05-21T16:04:13;27.20;99.90
38241;DHT22;24037;49.536;8.500;2023-05-21T16:06:41;27.20;99.90
38241;DHT22;24037;49.536;8.500;2023-05-21T16:09:07;27.20;99.90
38241;DHT22;24037;49.536;8.500;2023-05-21T16:11:34;27.40;99.90
38241;DHT22;24037;49.536;8.500;2023-05-21T16:14:00;27.70;99.90